St. Margarethen - Festspielgelnde
Wetterdaten: aktuell Freitag, 14.12.2018 15:30
Datum Zeit Temp. A. Feuchte A. Regen Wind Richtung Richtung Taupunkt Windchill Windben
14.12.2018 15:30 -1,6 C 95 % 0,0 l/m 2,4 km/h (1 Bft) NO 53 -2,3 C -1,6 C 3,2 km/h (1 Bft)
14.12.2018 14:30 -1,5 C 95 % 0,0 l/m 1,8 km/h (1 Bft) O-NO 60 -2,2 C -1,5 C 3,2 km/h (1 Bft)
14.12.2018 13:30 -1,8 C 95 % 0,0 l/m 2,1 km/h (1 Bft) N-NO 27 -2,5 C -1,8 C 3,2 km/h (1 Bft)
14.12.2018 12:30 -2,0 C 95 % 0,0 l/m 1,5 km/h (1 Bft) O-NO 58 -2,7 C -2,0 C 3,2 km/h (1 Bft)
14.12.2018 11:30 -2,1 C 95 % 0,0 l/m 2,7 km/h (1 Bft) O-NO 57 -2,8 C -2,1 C 3,2 km/h (1 Bft)
14.12.2018 10:30 -2,4 C 95 % 0,0 l/m 5,1 km/h (1 Bft) O-NO 63 -3,1 C -2,4 C 6,4 km/h (2 Bft)
14.12.2018 09:30 -2,7 C 94 % 0,0 l/m 4,3 km/h (1 Bft) O-NO 75 -3,5 C -2,7 C 6,4 km/h (2 Bft)
14.12.2018 08:30 -2,9 C 94 % 0,0 l/m 2,3 km/h (1 Bft) O-NO 67 -3,7 C -2,9 C 3,2 km/h (1 Bft)
14.12.2018 07:30 -2,9 C 94 % 0,0 l/m 2,8 km/h (1 Bft) O-NO 72 -3,7 C -2,9 C 4,8 km/h (1 Bft)
14.12.2018 06:28 -3,1 C 94 % 0,0 l/m 4,4 km/h (1 Bft) O 100 -3,9 C -3,1 C 6,4 km/h (2 Bft)
14.12.2018 05:28 -3,2 C 94 % 0,0 l/m 3,0 km/h (1 Bft) O 88 -4,0 C -3,2 C 3,2 km/h (1 Bft)
14.12.2018 04:28 -2,9 C 94 % 0,0 l/m 7,7 km/h (2 Bft) O-NO 60 -3,7 C -4,4 C 9,7 km/h (2 Bft)
14.12.2018 03:28 -2,6 C 94 % 0,0 l/m 6,4 km/h (2 Bft) O-NO 75 -3,4 C -2,6 C 9,7 km/h (2 Bft)
14.12.2018 02:27 -2,6 C 94 % 0,0 l/m 8,2 km/h (2 Bft) O-NO 70 -3,4 C -4,6 C 11,3 km/h (2 Bft)
14.12.2018 01:27 -2,4 C 95 % 0,0 l/m 8,9 km/h (2 Bft) O-NO 60 -3,1 C -5,1 C 12,9 km/h (3 Bft)
14.12.2018 00:27 -2,4 C 95 % 0,0 l/m 7,5 km/h (2 Bft) O-NO 70 -3,1 C -3,6 C 11,3 km/h (2 Bft)
13.12.2018 23:27 -2,2 C 95 % 0,0 l/m 9,2 km/h (2 Bft) O-NO 65 -2,9 C -5,1 C 12,9 km/h (3 Bft)
13.12.2018 22:27 -2,2 C 95 % 0,0 l/m 7,6 km/h (2 Bft) O-NO 72 -2,9 C -3,5 C 9,7 km/h (2 Bft)
13.12.2018 21:27 -2,2 C 94 % 0,0 l/m 6,8 km/h (2 Bft) O-NO 60 -3,0 C -2,6 C 8,0 km/h (2 Bft)
13.12.2018 20:27 -2,0 C 94 % 0,0 l/m 8,1 km/h (2 Bft) O 93 -2,8 C -3,8 C 9,7 km/h (2 Bft)
13.12.2018 19:27 -1,7 C 94 % 0,0 l/m 4,1 km/h (1 Bft) O-NO 68 -2,5 C -1,7 C 4,8 km/h (1 Bft)
13.12.2018 18:27 -1,9 C 94 % 0,0 l/m 0,3 km/h (0 Bft) O-NO 74 -2,7 C -1,9 C 1,6 km/h (1 Bft)
13.12.2018 17:27 -1,8 C 94 % 0,0 l/m 3,8 km/h (1 Bft) O 82 -2,6 C -1,8 C 4,8 km/h (1 Bft)
13.12.2018 16:27 -1,6 C 94 % 0,0 l/m 6,2 km/h (2 Bft) O-NO 75 -2,4 C -1,6 C 6,4 km/h (2 Bft)
13.12.2018 16:00 -1,4 C 94 % 0,0 l/m 8,3 km/h (2 Bft) O-NO 67 -2,2 C -3,4 C 9,7 km/h (2 Bft)
_ Min-Zeit 05:19 16:00 - 18:13 - - 05:19 02:51 18:13
Minimum _ -3,2 C 94 % - 0,0 km/h (0 Bft) - - -4,0 C -8,7 C 0,0 km/h (0 Bft)
_ Max-Zeit 16:00 22:23 16:00 23:21 - - 14:27 16:16 02:42
Maximum _ -1,4 C 95 % 0,0 l/m 13,5 km/h
O-NO (3 Bft)
- - -2,2 C -1,5 C 17,7 km/h
O (3 Bft)
Durchschnitt _ -2,2 C 94 % #0,0 l/m 5,2 km/h (1 Bft) O-NO - -3,0 C -3,0 C 6,9 km/h (2 Bft)